sensor_id;sensor_type;location;lat;lon;timestamp;P1;durP1;ratioP1;P2;durP2;ratioP2
2289;SDS011;1153;47.986;7.898;2022-12-05T00:01:57;18.93;;;11.10;;
2289;SDS011;1153;47.986;7.898;2022-12-05T00:04:22;18.30;;;11.40;;
2289;SDS011;1153;47.986;7.898;2022-12-05T00:06:48;20.13;;;10.83;;
2289;SDS011;1153;47.986;7.898;2022-12-05T00:09:13;26.43;;;14.30;;
2289;SDS011;1153;47.986;7.898;2022-12-05T00:11:39;18.70;;;10.53;;
2289;SDS011;1153;47.986;7.898;2022-12-05T00:14:06;19.37;;;10.37;;
2289;SDS011;1153;47.986;7.898;2022-12-05T00:16:34;20.93;;;10.80;;
2289;SDS011;1153;47.986;7.898;2022-12-05T00:18:59;19.03;;;10.50;;
2289;SDS011;1153;47.986;7.898;2022-12-05T00:21:26;27.00;;;11.17;;
2289;SDS011;1153;47.986;7.898;2022-12-05T00:23:52;20.30;;;12.13;;
2289;SDS011;1153;47.986;7.898;2022-12-05T00:26:17;25.07;;;12.27;;
2289;SDS011;1153;47.986;7.898;2022-12-05T00:28:43;21.83;;;11.50;;
2289;SDS011;1153;47.986;7.898;2022-12-05T00:31:09;24.13;;;11.00;;
2289;SDS011;1153;47.986;7.898;2022-12-05T00:33:35;24.67;;;12.67;;
2289;SDS011;1153;47.986;7.898;2022-12-05T00:36:01;18.43;;;11.57;;
2289;SDS011;1153;47.986;7.898;2022-12-05T00:38:26;24.87;;;11.43;;
2289;SDS011;1153;47.986;7.898;2022-12-05T00:40:51;22.17;;;11.40;;
2289;SDS011;1153;47.986;7.898;2022-12-05T00:43:17;28.30;;;12.40;;
2289;SDS011;1153;47.986;7.898;2022-12-05T00:45:42;21.37;;;10.83;;
2289;SDS011;1153;47.986;7.898;2022-12-05T00:48:07;25.63;;;10.60;;
2289;SDS011;1153;47.986;7.898;2022-12-05T00:50:32;19.90;;;10.90;;
2289;SDS011;1153;47.986;7.898;2022-12-05T00:52:57;17.40;;;10.30;;
2289;SDS011;1153;47.986;7.898;2022-12-05T00:55:23;19.07;;;9.80;;
2289;SDS011;1153;47.986;7.898;2022-12-05T00:57:48;18.20;;;10.93;;
2289;SDS011;1153;47.986;7.898;2022-12-05T01:00:13;23.73;;;10.43;;
2289;SDS011;1153;47.986;7.898;2022-12-05T01:02:38;19.23;;;10.73;;
2289;SDS011;1153;47.986;7.898;2022-12-05T01:05:04;32.90;;;12.50;;
2289;SDS011;1153;47.986;7.898;2022-12-05T01:07:29;23.40;;;12.07;;
2289;SDS011;1153;47.986;7.898;2022-12-05T01:09:54;14.40;;;10.17;;
2289;SDS011;1153;47.986;7.898;2022-12-05T01:12:19;20.47;;;10.00;;
2289;SDS011;1153;47.986;7.898;2022-12-05T01:14:45;13.83;;;8.70;;
2289;SDS011;1153;47.986;7.898;2022-12-05T01:17:10;17.60;;;10.30;;
2289;SDS011;1153;47.986;7.898;2022-12-05T01:19:35;20.03;;;10.80;;
2289;SDS011;1153;47.986;7.898;2022-12-05T01:22:00;15.00;;;8.47;;
2289;SDS011;1153;47.986;7.898;2022-12-05T01:24:26;17.80;;;9.70;;
2289;SDS011;1153;47.986;7.898;2022-12-05T01:26:52;16.13;;;8.90;;
2289;SDS011;1153;47.986;7.898;2022-12-05T01:29:18;14.07;;;8.10;;
2289;SDS011;1153;47.986;7.898;2022-12-05T01:31:43;15.70;;;8.70;;
2289;SDS011;1153;47.986;7.898;2022-12-05T01:34:10;15.60;;;9.00;;
2289;SDS011;1153;47.986;7.898;2022-12-05T01:36:35;14.50;;;8.23;;
2289;SDS011;1153;47.986;7.898;2022-12-05T01:39:00;11.93;;;7.43;;
2289;SDS011;1153;47.986;7.898;2022-12-05T01:41:28;14.43;;;9.07;;
2289;SDS011;1153;47.986;7.898;2022-12-05T01:46:21;11.60;;;6.77;;
2289;SDS011;1153;47.986;7.898;2022-12-05T01:48:46;10.67;;;7.30;;
2289;SDS011;1153;47.986;7.898;2022-12-05T01:51:12;16.87;;;8.90;;
2289;SDS011;1153;47.986;7.898;2022-12-05T01:53:37;14.77;;;7.60;;
2289;SDS011;1153;47.986;7.898;2022-12-05T01:56:03;9.17;;;7.40;;
2289;SDS011;1153;47.986;7.898;2022-12-05T01:58:30;12.80;;;8.10;;
2289;SDS011;1153;47.986;7.898;2022-12-05T02:00:56;10.47;;;6.80;;
2289;SDS011;1153;47.986;7.898;2022-12-05T02:03:22;8.37;;;6.73;;
2289;SDS011;1153;47.986;7.898;2022-12-05T02:05:47;14.10;;;8.13;;
2289;SDS011;1153;47.986;7.898;2022-12-05T02:08:14;12.13;;;7.40;;
2289;SDS011;1153;47.986;7.898;2022-12-05T02:10:41;8.60;;;6.70;;
2289;SDS011;1153;47.986;7.898;2022-12-05T02:13:13;12.73;;;6.90;;
2289;SDS011;1153;47.986;7.898;2022-12-05T02:15:44;11.73;;;7.63;;
2289;SDS011;1153;47.986;7.898;2022-12-05T02:18:20;11.97;;;6.63;;
2289;SDS011;1153;47.986;7.898;2022-12-05T02:31:18;13.77;;;7.77;;
2289;SDS011;1153;47.986;7.898;2022-12-05T02:33:47;8.83;;;5.60;;
2289;SDS011;1153;47.986;7.898;2022-12-05T02:39:02;14.27;;;6.90;;
2289;SDS011;1153;47.986;7.898;2022-12-05T02:41:31;5.77;;;5.27;;
2289;SDS011;1153;47.986;7.898;2022-12-05T02:44:15;5.77;;;5.20;;
2289;SDS011;1153;47.986;7.898;2022-12-05T02:46:42;11.00;;;5.63;;
2289;SDS011;1153;47.986;7.898;2022-12-05T02:49:10;9.80;;;6.63;;
2289;SDS011;1153;47.986;7.898;2022-12-05T02:51:37;7.30;;;6.17;;
2289;SDS011;1153;47.986;7.898;2022-12-05T02:54:05;8.33;;;6.10;;
2289;SDS011;1153;47.986;7.898;2022-12-05T02:56:32;6.03;;;5.43;;
2289;SDS011;1153;47.986;7.898;2022-12-05T02:58:58;6.57;;;5.90;;
2289;SDS011;1153;47.986;7.898;2022-12-05T03:01:24;9.93;;;6.27;;
2289;SDS011;1153;47.986;7.898;2022-12-05T03:03:51;7.03;;;6.07;;
2289;SDS011;1153;47.986;7.898;2022-12-05T03:06:30;7.00;;;4.97;;
2289;SDS011;1153;47.986;7.898;2022-12-05T03:14:35;6.67;;;4.97;;
2289;SDS011;1153;47.986;7.898;2022-12-05T03:17:04;9.20;;;5.67;;
2289;SDS011;1153;47.986;7.898;2022-12-05T03:22:15;6.20;;;4.47;;
2289;SDS011;1153;47.986;7.898;2022-12-05T03:24:42;5.93;;;5.33;;
2289;SDS011;1153;47.986;7.898;2022-12-05T03:27:14;5.13;;;4.43;;
2289;SDS011;1153;47.986;7.898;2022-12-05T03:34:46;3.53;;;3.33;;
2289;SDS011;1153;47.986;7.898;2022-12-05T03:37:17;3.80;;;3.50;;
2289;SDS011;1153;47.986;7.898;2022-12-05T03:39:44;4.67;;;3.53;;
2289;SDS011;1153;47.986;7.898;2022-12-05T03:42:13;5.17;;;4.20;;
2289;SDS011;1153;47.986;7.898;2022-12-05T03:47:08;3.97;;;3.47;;
2289;SDS011;1153;47.986;7.898;2022-12-05T03:49:39;4.63;;;4.33;;
2289;SDS011;1153;47.986;7.898;2022-12-05T03:52:11;4.70;;;4.30;;
2289;SDS011;1153;47.986;7.898;2022-12-05T03:54:39;4.97;;;4.57;;
2289;SDS011;1153;47.986;7.898;2022-12-05T03:57:11;5.23;;;4.70;;
2289;SDS011;1153;47.986;7.898;2022-12-05T03:59:45;4.70;;;4.40;;
2289;SDS011;1153;47.986;7.898;2022-12-05T04:02:23;5.13;;;3.93;;
2289;SDS011;1153;47.986;7.898;2022-12-05T04:04:55;4.30;;;3.93;;
2289;SDS011;1153;47.986;7.898;2022-12-05T04:07:22;4.37;;;4.07;;
2289;SDS011;1153;47.986;7.898;2022-12-05T04:09:49;6.13;;;4.37;;
2289;SDS011;1153;47.986;7.898;2022-12-05T04:12:18;4.57;;;4.17;;
2289;SDS011;1153;47.986;7.898;2022-12-05T04:14:47;8.87;;;4.10;;
2289;SDS011;1153;47.986;7.898;2022-12-05T04:17:17;5.97;;;3.60;;
2289;SDS011;1153;47.986;7.898;2022-12-05T04:22:31;5.27;;;4.87;;
2289;SDS011;1153;47.986;7.898;2022-12-05T04:24:57;4.90;;;4.50;;
2289;SDS011;1153;47.986;7.898;2022-12-05T04:30:18;3.93;;;3.43;;
2289;SDS011;1153;47.986;7.898;2022-12-05T04:35:19;4.10;;;3.80;;
2289;SDS011;1153;47.986;7.898;2022-12-05T04:37:47;3.57;;;3.37;;
2289;SDS011;1153;47.986;7.898;2022-12-05T04:42:57;4.87;;;4.57;;
2289;SDS011;1153;47.986;7.898;2022-12-05T04:45:23;5.80;;;3.30;;
2289;SDS011;1153;47.986;7.898;2022-12-05T04:47:53;3.83;;;3.60;;
2289;SDS011;1153;47.986;7.898;2022-12-05T04:50:19;6.83;;;4.50;;
2289;SDS011;1153;47.986;7.898;2022-12-05T04:52:46;6.13;;;5.73;;
2289;SDS011;1153;47.986;7.898;2022-12-05T04:55:14;4.40;;;4.10;;
2289;SDS011;1153;47.986;7.898;2022-12-05T04:57:45;3.67;;;3.30;;
2289;SDS011;1153;47.986;7.898;2022-12-05T05:00:11;7.00;;;4.13;;
2289;SDS011;1153;47.986;7.898;2022-12-05T05:02:39;3.80;;;3.50;;
2289;SDS011;1153;47.986;7.898;2022-12-05T05:05:06;2.97;;;2.50;;
2289;SDS011;1153;47.986;7.898;2022-12-05T05:07:41;3.70;;;3.40;;
2289;SDS011;1153;47.986;7.898;2022-12-05T05:10:06;5.30;;;4.90;;
2289;SDS011;1153;47.986;7.898;2022-12-05T05:12:32;6.30;;;6.00;;
2289;SDS011;1153;47.986;7.898;2022-12-05T05:14:57;7.73;;;4.50;;
2289;SDS011;1153;47.986;7.898;2022-12-05T05:17:22;5.87;;;4.50;;
2289;SDS011;1153;47.986;7.898;2022-12-05T05:19:47;6.60;;;6.10;;
2289;SDS011;1153;47.986;7.898;2022-12-05T05:22:12;4.67;;;4.33;;
2289;SDS011;1153;47.986;7.898;2022-12-05T05:24:37;4.97;;;4.00;;
2289;SDS011;1153;47.986;7.898;2022-12-05T05:27:03;5.47;;;4.20;;
2289;SDS011;1153;47.986;7.898;2022-12-05T05:29:28;7.77;;;3.63;;
2289;SDS011;1153;47.986;7.898;2022-12-05T05:31:53;3.10;;;2.90;;
2289;SDS011;1153;47.986;7.898;2022-12-05T05:34:18;3.80;;;2.93;;
2289;SDS011;1153;47.986;7.898;2022-12-05T05:36:43;3.37;;;3.10;;
2289;SDS011;1153;47.986;7.898;2022-12-05T05:39:12;2.50;;;2.30;;
2289;SDS011;1153;47.986;7.898;2022-12-05T05:41:38;3.87;;;3.63;;
2289;SDS011;1153;47.986;7.898;2022-12-05T05:44:04;3.53;;;3.33;;
2289;SDS011;1153;47.986;7.898;2022-12-05T05:46:30;4.30;;;4.00;;
2289;SDS011;1153;47.986;7.898;2022-12-05T05:48:55;4.57;;;4.27;;
2289;SDS011;1153;47.986;7.898;2022-12-05T05:51:21;5.83;;;5.43;;
2289;SDS011;1153;47.986;7.898;2022-12-05T05:53:46;5.03;;;4.67;;
2289;SDS011;1153;47.986;7.898;2022-12-05T05:56:13;3.53;;;3.20;;
2289;SDS011;1153;47.986;7.898;2022-12-05T05:58:38;4.87;;;4.67;;
2289;SDS011;1153;47.986;7.898;2022-12-05T06:03:29;7.47;;;4.20;;
2289;SDS011;1153;47.986;7.898;2022-12-05T06:05:57;7.17;;;6.17;;
2289;SDS011;1153;47.986;7.898;2022-12-05T06:08:23;4.63;;;4.23;;
2289;SDS011;1153;47.986;7.898;2022-12-05T06:10:48;5.13;;;4.73;;
2289;SDS011;1153;47.986;7.898;2022-12-05T06:13:13;3.63;;;3.33;;
2289;SDS011;1153;47.986;7.898;2022-12-05T06:15:38;4.37;;;4.10;;
2289;SDS011;1153;47.986;7.898;2022-12-05T06:18:04;4.23;;;4.00;;
2289;SDS011;1153;47.986;7.898;2022-12-05T06:20:29;4.60;;;4.20;;
2289;SDS011;1153;47.986;7.898;2022-12-05T06:22:54;3.37;;;3.17;;
2289;SDS011;1153;47.986;7.898;2022-12-05T06:25:19;3.17;;;2.97;;
2289;SDS011;1153;47.986;7.898;2022-12-05T06:27:44;5.40;;;4.63;;
2289;SDS011;1153;47.986;7.898;2022-12-05T06:30:10;5.87;;;3.60;;
2289;SDS011;1153;47.986;7.898;2022-12-05T06:32:35;4.13;;;3.83;;
2289;SDS011;1153;47.986;7.898;2022-12-05T06:35:00;4.87;;;4.40;;
2289;SDS011;1153;47.986;7.898;2022-12-05T06:37:34;4.37;;;4.07;;
2289;SDS011;1153;47.986;7.898;2022-12-05T06:39:59;7.50;;;4.03;;
2289;SDS011;1153;47.986;7.898;2022-12-05T06:42:24;5.27;;;4.93;;
2289;SDS011;1153;47.986;7.898;2022-12-05T06:44:49;34.80;;;12.03;;
2289;SDS011;1153;47.986;7.898;2022-12-05T06:47:14;23.20;;;9.43;;
2289;SDS011;1153;47.986;7.898;2022-12-05T06:49:40;5.90;;;3.80;;
2289;SDS011;1153;47.986;7.898;2022-12-05T06:52:05;9.60;;;7.17;;
2289;SDS011;1153;47.986;7.898;2022-12-05T06:54:30;6.20;;;5.70;;
2289;SDS011;1153;47.986;7.898;2022-12-05T06:56:55;4.73;;;4.43;;
2289;SDS011;1153;47.986;7.898;2022-12-05T06:59:20;5.47;;;4.93;;
2289;SDS011;1153;47.986;7.898;2022-12-05T07:01:46;6.20;;;5.70;;
2289;SDS011;1153;47.986;7.898;2022-12-05T07:04:20;6.67;;;6.37;;
2289;SDS011;1153;47.986;7.898;2022-12-05T07:06:48;4.57;;;4.17;;
2289;SDS011;1153;47.986;7.898;2022-12-05T07:09:13;4.20;;;3.90;;
2289;SDS011;1153;47.986;7.898;2022-12-05T07:11:38;7.33;;;5.33;;
2289;SDS011;1153;47.986;7.898;2022-12-05T07:14:04;5.57;;;5.07;;
2289;SDS011;1153;47.986;7.898;2022-12-05T07:16:29;5.93;;;5.20;;
2289;SDS011;1153;47.986;7.898;2022-12-05T07:18:55;5.70;;;5.30;;
2289;SDS011;1153;47.986;7.898;2022-12-05T07:21:20;5.23;;;4.77;;
2289;SDS011;1153;47.986;7.898;2022-12-05T07:23:46;5.87;;;5.13;;
2289;SDS011;1153;47.986;7.898;2022-12-05T07:26:13;18.27;;;11.40;;
2289;SDS011;1153;47.986;7.898;2022-12-05T07:28:38;5.30;;;5.00;;
2289;SDS011;1153;47.986;7.898;2022-12-05T07:31:04;5.30;;;5.00;;
2289;SDS011;1153;47.986;7.898;2022-12-05T07:33:30;5.47;;;5.07;;
2289;SDS011;1153;47.986;7.898;2022-12-05T07:36:02;9.00;;;6.90;;
2289;SDS011;1153;47.986;7.898;2022-12-05T07:38:27;1.63;;;1.53;;
2289;SDS011;1153;47.986;7.898;2022-12-05T07:40:53;4.40;;;2.97;;
2289;SDS011;1153;47.986;7.898;2022-12-05T07:43:18;4.17;;;3.80;;
2289;SDS011;1153;47.986;7.898;2022-12-05T07:45:43;6.97;;;4.23;;
2289;SDS011;1153;47.986;7.898;2022-12-05T07:48:08;3.23;;;3.00;;
2289;SDS011;1153;47.986;7.898;2022-12-05T07:50:35;3.10;;;2.40;;
2289;SDS011;1153;47.986;7.898;2022-12-05T07:53:00;1.70;;;1.60;;
2289;SDS011;1153;47.986;7.898;2022-12-05T07:55:25;5.63;;;5.13;;
2289;SDS011;1153;47.986;7.898;2022-12-05T07:57:50;1.47;;;1.37;;
2289;SDS011;1153;47.986;7.898;2022-12-05T08:00:16;0.97;;;0.60;;
2289;SDS011;1153;47.986;7.898;2022-12-05T08:02:41;1.17;;;0.97;;
2289;SDS011;1153;47.986;7.898;2022-12-05T08:05:06;2.80;;;0.83;;
2289;SDS011;1153;47.986;7.898;2022-12-05T08:07:32;1.63;;;0.90;;
2289;SDS011;1153;47.986;7.898;2022-12-05T08:09:57;2.33;;;1.30;;
2289;SDS011;1153;47.986;7.898;2022-12-05T08:12:22;0.83;;;0.60;;
2289;SDS011;1153;47.986;7.898;2022-12-05T08:14:47;4.23;;;2.73;;
2289;SDS011;1153;47.986;7.898;2022-12-05T08:17:12;2.93;;;2.73;;
2289;SDS011;1153;47.986;7.898;2022-12-05T08:19:38;3.27;;;3.13;;
2289;SDS011;1153;47.986;7.898;2022-12-05T08:22:03;3.70;;;3.50;;
2289;SDS011;1153;47.986;7.898;2022-12-05T08:24:28;4.67;;;4.27;;
2289;SDS011;1153;47.986;7.898;2022-12-05T08:26:54;5.03;;;4.53;;
2289;SDS011;1153;47.986;7.898;2022-12-05T08:29:19;5.10;;;4.10;;
2289;SDS011;1153;47.986;7.898;2022-12-05T08:31:46;4.23;;;3.93;;
2289;SDS011;1153;47.986;7.898;2022-12-05T08:34:12;12.60;;;8.57;;
2289;SDS011;1153;47.986;7.898;2022-12-05T08:36:37;8.10;;;7.40;;
2289;SDS011;1153;47.986;7.898;2022-12-05T08:39:03;8.37;;;7.57;;
2289;SDS011;1153;47.986;7.898;2022-12-05T08:41:29;5.57;;;5.17;;
2289;SDS011;1153;47.986;7.898;2022-12-05T08:43:55;6.00;;;5.50;;
2289;SDS011;1153;47.986;7.898;2022-12-05T08:46:20;7.10;;;5.40;;
2289;SDS011;1153;47.986;7.898;2022-12-05T08:48:46;7.20;;;6.50;;
2289;SDS011;1153;47.986;7.898;2022-12-05T08:51:11;6.80;;;6.10;;
2289;SDS011;1153;47.986;7.898;2022-12-05T08:53:37;6.53;;;5.93;;
2289;SDS011;1153;47.986;7.898;2022-12-05T08:56:03;12.87;;;7.67;;
2289;SDS011;1153;47.986;7.898;2022-12-05T08:58:29;17.13;;;7.03;;
2289;SDS011;1153;47.986;7.898;2022-12-05T09:01:02;12.60;;;8.40;;
2289;SDS011;1153;47.986;7.898;2022-12-05T09:03:27;9.23;;;6.43;;
2289;SDS011;1153;47.986;7.898;2022-12-05T09:05:52;9.77;;;6.17;;
2289;SDS011;1153;47.986;7.898;2022-12-05T09:08:17;15.10;;;7.70;;
2289;SDS011;1153;47.986;7.898;2022-12-05T09:10:42;6.60;;;6.00;;
2289;SDS011;1153;47.986;7.898;2022-12-05T09:13:08;7.40;;;6.00;;
2289;SDS011;1153;47.986;7.898;2022-12-05T09:15:33;5.63;;;5.13;;
2289;SDS011;1153;47.986;7.898;2022-12-05T09:17:58;7.63;;;4.53;;
2289;SDS011;1153;47.986;7.898;2022-12-05T09:20:23;4.63;;;4.23;;
2289;SDS011;1153;47.986;7.898;2022-12-05T09:22:48;4.33;;;3.93;;
2289;SDS011;1153;47.986;7.898;2022-12-05T09:25:15;5.63;;;4.43;;
2289;SDS011;1153;47.986;7.898;2022-12-05T09:27:41;6.23;;;5.10;;
2289;SDS011;1153;47.986;7.898;2022-12-05T09:30:06;5.53;;;5.03;;
2289;SDS011;1153;47.986;7.898;2022-12-05T09:32:31;7.90;;;5.13;;
2289;SDS011;1153;47.986;7.898;2022-12-05T09:34:57;6.67;;;5.37;;
2289;SDS011;1153;47.986;7.898;2022-12-05T09:37:22;7.00;;;6.27;;
2289;SDS011;1153;47.986;7.898;2022-12-05T09:39:47;9.37;;;6.07;;
2289;SDS011;1153;47.986;7.898;2022-12-05T09:50:22;6.97;;;6.10;;
2289;SDS011;1153;47.986;7.898;2022-12-05T09:55:17;5.63;;;5.20;;
2289;SDS011;1153;47.986;7.898;2022-12-05T09:57:55;6.30;;;5.80;;
2289;SDS011;1153;47.986;7.898;2022-12-05T10:00:21;6.57;;;5.97;;
2289;SDS011;1153;47.986;7.898;2022-12-05T10:05:42;5.03;;;4.60;;
2289;SDS011;1153;47.986;7.898;2022-12-05T10:08:13;5.23;;;4.83;;
2289;SDS011;1153;47.986;7.898;2022-12-05T10:10:56;6.47;;;4.30;;
2289;SDS011;1153;47.986;7.898;2022-12-05T10:15:52;5.10;;;4.80;;
2289;SDS011;1153;47.986;7.898;2022-12-05T10:20:56;5.40;;;4.90;;
2289;SDS011;1153;47.986;7.898;2022-12-05T10:23:25;4.87;;;4.57;;
2289;SDS011;1153;47.986;7.898;2022-12-05T10:25:55;4.00;;;3.70;;
2289;SDS011;1153;47.986;7.898;2022-12-05T10:28:29;4.23;;;3.73;;
2289;SDS011;1153;47.986;7.898;2022-12-05T10:30:56;3.43;;;3.23;;
2289;SDS011;1153;47.986;7.898;2022-12-05T10:33:24;4.57;;;4.17;;
2289;SDS011;1153;47.986;7.898;2022-12-05T10:35:51;2.90;;;2.70;;
2289;SDS011;1153;47.986;7.898;2022-12-05T10:38:21;2.37;;;2.23;;
2289;SDS011;1153;47.986;7.898;2022-12-05T10:40:49;1.70;;;1.50;;
2289;SDS011;1153;47.986;7.898;2022-12-05T10:43:16;2.97;;;2.67;;
2289;SDS011;1153;47.986;7.898;2022-12-05T10:45:43;3.67;;;2.60;;
2289;SDS011;1153;47.986;7.898;2022-12-05T10:48:16;2.63;;;2.43;;
2289;SDS011;1153;47.986;7.898;2022-12-05T10:50:42;1.97;;;1.87;;
2289;SDS011;1153;47.986;7.898;2022-12-05T10:53:09;1.17;;;0.87;;
2289;SDS011;1153;47.986;7.898;2022-12-05T10:55:42;1.60;;;1.23;;
2289;SDS011;1153;47.986;7.898;2022-12-05T11:00:36;0.87;;;0.60;;
2289;SDS011;1153;47.986;7.898;2022-12-05T11:03:15;1.17;;;0.67;;
2289;SDS011;1153;47.986;7.898;2022-12-05T11:05:46;1.00;;;0.87;;
2289;SDS011;1153;47.986;7.898;2022-12-05T11:08:19;1.50;;;0.80;;
2289;SDS011;1153;47.986;7.898;2022-12-05T11:10:45;0.90;;;0.60;;
2289;SDS011;1153;47.986;7.898;2022-12-05T11:13:22;1.20;;;0.70;;
2289;SDS011;1153;47.986;7.898;2022-12-05T11:15:48;1.07;;;0.80;;
2289;SDS011;1153;47.986;7.898;2022-12-05T11:18:18;1.00;;;0.60;;
2289;SDS011;1153;47.986;7.898;2022-12-05T11:20:50;1.20;;;1.07;;
2289;SDS011;1153;47.986;7.898;2022-12-05T11:23:21;0.90;;;0.57;;
2289;SDS011;1153;47.986;7.898;2022-12-05T11:25:47;1.10;;;0.90;;
2289;SDS011;1153;47.986;7.898;2022-12-05T11:30:40;1.10;;;0.60;;
2289;SDS011;1153;47.986;7.898;2022-12-05T11:33:20;1.33;;;0.63;;
2289;SDS011;1153;47.986;7.898;2022-12-05T11:35:46;1.10;;;0.70;;
2289;SDS011;1153;47.986;7.898;2022-12-05T11:38:12;1.17;;;0.70;;
2289;SDS011;1153;47.986;7.898;2022-12-05T11:40:43;1.00;;;0.70;;
2289;SDS011;1153;47.986;7.898;2022-12-05T12:04:18;2.10;;;1.07;;
2289;SDS011;1153;47.986;7.898;2022-12-05T12:12:11;1.73;;;1.37;;
2289;SDS011;1153;47.986;7.898;2022-12-05T12:30:23;1.63;;;1.50;;
2289;SDS011;1153;47.986;7.898;2022-12-05T12:35:27;1.67;;;1.37;;
2289;SDS011;1153;47.986;7.898;2022-12-05T12:43:13;2.00;;;1.80;;
2289;SDS011;1153;47.986;7.898;2022-12-05T12:50:32;1.27;;;1.17;;
2289;SDS011;1153;47.986;7.898;2022-12-05T12:55:25;2.13;;;1.90;;
2289;SDS011;1153;47.986;7.898;2022-12-05T13:03:12;1.60;;;1.30;;
2289;SDS011;1153;47.986;7.898;2022-12-05T13:08:19;2.27;;;2.07;;
2289;SDS011;1153;47.986;7.898;2022-12-05T13:10:46;1.90;;;1.80;;
2289;SDS011;1153;47.986;7.898;2022-12-05T13:13:15;2.80;;;2.03;;
2289;SDS011;1153;47.986;7.898;2022-12-05T13:15:43;2.83;;;2.63;;
2289;SDS011;1153;47.986;7.898;2022-12-05T13:18:12;3.03;;;2.40;;
2289;SDS011;1153;47.986;7.898;2022-12-05T13:20:38;3.07;;;2.73;;
2289;SDS011;1153;47.986;7.898;2022-12-05T13:23:04;1.70;;;1.60;;
2289;SDS011;1153;47.986;7.898;2022-12-05T13:25:32;4.23;;;2.43;;
2289;SDS011;1153;47.986;7.898;2022-12-05T13:27:59;2.37;;;2.17;;
2289;SDS011;1153;47.986;7.898;2022-12-05T13:30:25;3.30;;;2.60;;
2289;SDS011;1153;47.986;7.898;2022-12-05T13:32:56;3.30;;;3.10;;
2289;SDS011;1153;47.986;7.898;2022-12-05T13:35:26;5.33;;;3.87;;
2289;SDS011;1153;47.986;7.898;2022-12-05T13:38:21;8.73;;;2.67;;
2289;SDS011;1153;47.986;7.898;2022-12-05T13:41:06;2.80;;;2.60;;
2289;SDS011;1153;47.986;7.898;2022-12-05T13:43:50;2.90;;;2.70;;
2289;SDS011;1153;47.986;7.898;2022-12-05T13:46:30;2.53;;;2.33;;
2289;SDS011;1153;47.986;7.898;2022-12-05T13:49:11;2.93;;;2.73;;
2289;SDS011;1153;47.986;7.898;2022-12-05T13:51:39;3.50;;;2.33;;
2289;SDS011;1153;47.986;7.898;2022-12-05T13:54:09;2.60;;;2.40;;
2289;SDS011;1153;47.986;7.898;2022-12-05T13:56:50;4.53;;;2.93;;
2289;SDS011;1153;47.986;7.898;2022-12-05T14:01:59;2.43;;;2.23;;
2289;SDS011;1153;47.986;7.898;2022-12-05T14:04:45;2.50;;;2.30;;
2289;SDS011;1153;47.986;7.898;2022-12-05T14:07:13;2.40;;;2.20;;
2289;SDS011;1153;47.986;7.898;2022-12-05T14:09:57;3.60;;;3.40;;
2289;SDS011;1153;47.986;7.898;2022-12-05T14:17:22;2.73;;;2.53;;
2289;SDS011;1153;47.986;7.898;2022-12-05T14:19:52;3.00;;;2.80;;
2289;SDS011;1153;47.986;7.898;2022-12-05T14:27:18;1.80;;;1.70;;
2289;SDS011;1153;47.986;7.898;2022-12-05T14:32:18;1.53;;;1.43;;
2289;SDS011;1153;47.986;7.898;2022-12-05T14:34:56;1.80;;;1.70;;
2289;SDS011;1153;47.986;7.898;2022-12-05T14:37:26;1.80;;;1.70;;
2289;SDS011;1153;47.986;7.898;2022-12-05T14:39:53;2.70;;;1.40;;
2289;SDS011;1153;47.986;7.898;2022-12-05T14:44:45;1.50;;;1.40;;
2289;SDS011;1153;47.986;7.898;2022-12-05T14:47:10;1.90;;;1.40;;
2289;SDS011;1153;47.986;7.898;2022-12-05T14:49:55;1.50;;;1.40;;
2289;SDS011;1153;47.986;7.898;2022-12-05T14:52:23;2.27;;;1.43;;
2289;SDS011;1153;47.986;7.898;2022-12-05T14:54:50;1.40;;;1.30;;
2289;SDS011;1153;47.986;7.898;2022-12-05T14:57:16;1.57;;;1.47;;
2289;SDS011;1153;47.986;7.898;2022-12-05T14:59:52;2.37;;;1.63;;
2289;SDS011;1153;47.986;7.898;2022-12-05T15:02:21;5.07;;;2.30;;
2289;SDS011;1153;47.986;7.898;2022-12-05T15:04:51;1.83;;;1.43;;
2289;SDS011;1153;47.986;7.898;2022-12-05T15:07:38;2.20;;;1.70;;
2289;SDS011;1153;47.986;7.898;2022-12-05T15:12:38;1.70;;;1.37;;
2289;SDS011;1153;47.986;7.898;2022-12-05T15:15:51;1.60;;;1.50;;
2289;SDS011;1153;47.986;7.898;2022-12-05T15:17:55;1.73;;;1.63;;
2289;SDS011;1153;47.986;7.898;2022-12-05T15:25:50;2.60;;;2.40;;
2289;SDS011;1153;47.986;7.898;2022-12-05T15:28:17;1.63;;;1.50;;
2289;SDS011;1153;47.986;7.898;2022-12-05T15:30:43;3.10;;;2.03;;
2289;SDS011;1153;47.986;7.898;2022-12-05T15:33:18;1.93;;;1.83;;
2289;SDS011;1153;47.986;7.898;2022-12-05T15:35:43;2.10;;;2.00;;
2289;SDS011;1153;47.986;7.898;2022-12-05T15:38:13;3.00;;;2.80;;
2289;SDS011;1153;47.986;7.898;2022-12-05T15:40:44;2.67;;;2.47;;
2289;SDS011;1153;47.986;7.898;2022-12-05T15:43:27;2.83;;;2.20;;
2289;SDS011;1153;47.986;7.898;2022-12-05T15:46:17;1.90;;;1.70;;
2289;SDS011;1153;47.986;7.898;2022-12-05T15:48:44;2.23;;;2.03;;
2289;SDS011;1153;47.986;7.898;2022-12-05T15:51:09;7.27;;;1.87;;
2289;SDS011;1153;47.986;7.898;2022-12-05T15:53:36;2.20;;;2.00;;
2289;SDS011;1153;47.986;7.898;2022-12-05T16:06:40;2.20;;;2.10;;
2289;SDS011;1153;47.986;7.898;2022-12-05T16:08:56;2.20;;;2.00;;
2289;SDS011;1153;47.986;7.898;2022-12-05T16:11:23;2.90;;;2.70;;
2289;SDS011;1153;47.986;7.898;2022-12-05T16:13:49;3.80;;;2.87;;
2289;SDS011;1153;47.986;7.898;2022-12-05T16:16:16;3.60;;;1.83;;
2289;SDS011;1153;47.986;7.898;2022-12-05T16:18:52;2.50;;;2.30;;
2289;SDS011;1153;47.986;7.898;2022-12-05T16:21:34;1.77;;;1.67;;
2289;SDS011;1153;47.986;7.898;2022-12-05T16:24:17;1.80;;;1.70;;
2289;SDS011;1153;47.986;7.898;2022-12-05T16:26:50;1.73;;;1.60;;
2289;SDS011;1153;47.986;7.898;2022-12-05T16:29:27;1.70;;;1.10;;
2289;SDS011;1153;47.986;7.898;2022-12-05T16:31:54;1.70;;;1.30;;
2289;SDS011;1153;47.986;7.898;2022-12-05T16:34:20;1.60;;;1.50;;
2289;SDS011;1153;47.986;7.898;2022-12-05T16:36:46;1.33;;;1.07;;
2289;SDS011;1153;47.986;7.898;2022-12-05T16:39:12;1.63;;;1.33;;
2289;SDS011;1153;47.986;7.898;2022-12-05T16:41:38;1.57;;;1.40;;
2289;SDS011;1153;47.986;7.898;2022-12-05T16:44:04;1.67;;;1.40;;
2289;SDS011;1153;47.986;7.898;2022-12-05T16:46:39;1.70;;;1.60;;
2289;SDS011;1153;47.986;7.898;2022-12-05T16:51:44;1.80;;;1.30;;
2289;SDS011;1153;47.986;7.898;2022-12-05T16:54:09;1.30;;;1.20;;
2289;SDS011;1153;47.986;7.898;2022-12-05T16:56:35;1.47;;;1.37;;
2289;SDS011;1153;47.986;7.898;2022-12-05T16:59:01;1.77;;;1.50;;
2289;SDS011;1153;47.986;7.898;2022-12-05T17:01:26;1.37;;;1.27;;
2289;SDS011;1153;47.986;7.898;2022-12-05T17:03:52;1.63;;;1.53;;
2289;SDS011;1153;47.986;7.898;2022-12-05T17:06:18;1.30;;;1.20;;
2289;SDS011;1153;47.986;7.898;2022-12-05T17:08:45;1.10;;;0.80;;
2289;SDS011;1153;47.986;7.898;2022-12-05T17:11:15;1.30;;;0.80;;
2289;SDS011;1153;47.986;7.898;2022-12-05T17:13:41;1.20;;;1.00;;
2289;SDS011;1153;47.986;7.898;2022-12-05T17:16:06;2.40;;;2.10;;
2289;SDS011;1153;47.986;7.898;2022-12-05T17:18:31;1.30;;;1.20;;
2289;SDS011;1153;47.986;7.898;2022-12-05T17:20:56;1.20;;;0.90;;
2289;SDS011;1153;47.986;7.898;2022-12-05T17:23:24;1.30;;;1.03;;
2289;SDS011;1153;47.986;7.898;2022-12-05T17:25:50;1.10;;;0.80;;
2289;SDS011;1153;47.986;7.898;2022-12-05T17:28:16;1.37;;;1.27;;
2289;SDS011;1153;47.986;7.898;2022-12-05T17:30:41;1.27;;;1.17;;
2289;SDS011;1153;47.986;7.898;2022-12-05T17:33:10;1.10;;;0.80;;
2289;SDS011;1153;47.986;7.898;2022-12-05T17:35:36;2.13;;;1.03;;
2289;SDS011;1153;47.986;7.898;2022-12-05T17:38:02;1.87;;;1.33;;
2289;SDS011;1153;47.986;7.898;2022-12-05T17:40:28;1.80;;;1.70;;
2289;SDS011;1153;47.986;7.898;2022-12-05T17:42:53;1.30;;;1.00;;
2289;SDS011;1153;47.986;7.898;2022-12-05T17:45:18;1.30;;;1.03;;
2289;SDS011;1153;47.986;7.898;2022-12-05T17:47:44;1.93;;;1.50;;
2289;SDS011;1153;47.986;7.898;2022-12-05T17:50:10;1.20;;;1.10;;
2289;SDS011;1153;47.986;7.898;2022-12-05T17:52:36;1.10;;;0.97;;
2289;SDS011;1153;47.986;7.898;2022-12-05T17:55:01;1.33;;;1.20;;
2289;SDS011;1153;47.986;7.898;2022-12-05T17:57:26;1.30;;;1.13;;
2289;SDS011;1153;47.986;7.898;2022-12-05T17:59:51;1.20;;;1.10;;
2289;SDS011;1153;47.986;7.898;2022-12-05T18:02:17;1.00;;;0.90;;
2289;SDS011;1153;47.986;7.898;2022-12-05T18:04:43;2.30;;;1.33;;
2289;SDS011;1153;47.986;7.898;2022-12-05T18:07:09;1.50;;;1.40;;
2289;SDS011;1153;47.986;7.898;2022-12-05T18:09:34;1.00;;;0.70;;